Time;durP1;ratioP1;P1;durP2;ratioP2;P2;SDS_P1;SDS_P2;PMS_P1;PMS_P2;Temp;Humidity;BMP_temperature;BMP_pressure;BME280_temperature;BME280_humidity;BME280_pressure;Samples;Min_cycle;Max_cycle;Signal;HPM_P1;HPM_P2
2022/07/02 00:01:20;;;;;;;8.93;2.75;;;;;;;;;;6282232;22;20016;-88
2022/07/02 00:03:50;;;;;;;5.07;2.78;;;;;;;;;;6282225;22;20069;-83
2022/07/02 00:06:18;;;;;;;5.22;2.85;;;;;;;;;;6281867;22;20456;-85
2022/07/02 00:08:45;;;;;;;4.57;3.10;;;;;;;;;;6230038;22;20102;-84
2022/07/02 00:11:14;;;;;;;6.25;3.28;;;;;;;;;;6282276;22;20050;-86
2022/07/02 00:13:40;;;;;;;6.07;3.35;;;;;;;;;;6282590;22;20038;-84
2022/07/02 00:16:10;;;;;;;6.05;3.58;;;;;;;;;;6280860;22;20031;-84
2022/07/02 00:18:36;;;;;;;9.80;4.35;;;;;;;;;;6253673;22;20142;-85
2022/07/02 00:21:03;;;;;;;6.90;4.03;;;;;;;;;;6253714;22;20020;-87
2022/07/02 00:23:29;;;;;;;6.35;3.42;;;;;;;;;;6278587;22;20023;-84
2022/07/02 00:26:08;;;;;;;5.97;3.38;;;;;;;;;;6248785;22;20047;-86
2022/07/02 00:28:59;;;;;;;9.55;3.83;;;;;;;;;;6255568;22;20049;-87
2022/07/02 00:31:50;;;;;;;7.68;4.13;;;;;;;;;;6256519;22;20023;-88
2022/07/02 00:34:18;;;;;;;6.95;3.97;;;;;;;;;;6282448;22;20023;-87
2022/07/02 00:36:45;;;;;;;5.00;3.42;;;;;;;;;;6280738;22;20024;-86
2022/07/02 00:39:11;;;;;;;6.00;3.30;;;;;;;;;;6283283;22;20102;-82
2022/07/02 00:41:47;;;;;;;5.35;3.72;;;;;;;;;;6281140;22;20507;-87
2022/07/02 00:44:13;;;;;;;10.02;3.65;;;;;;;;;;6282064;22;20020;-82
2022/07/02 00:46:41;;;;;;;5.57;3.40;;;;;;;;;;6282052;22;20039;-86
2022/07/02 00:49:09;;;;;;;6.65;3.10;;;;;;;;;;6282680;22;20023;-85
2022/07/02 00:51:38;;;;;;;5.50;3.00;;;;;;;;;;6230424;22;20019;-88
2022/07/02 00:54:04;;;;;;;7.50;3.88;;;;;;;;;;6283115;22;20588;-86
2022/07/02 00:56:30;;;;;;;7.07;3.30;;;;;;;;;;6256758;22;20630;-87
2022/07/02 00:59:03;;;;;;;8.68;3.67;;;;;;;;;;6283748;22;20051;-87
2022/07/02 01:01:30;;;;;;;10.30;3.40;;;;;;;;;;6283917;22;20153;-83
2022/07/02 01:03:58;;;;;;;5.32;3.17;;;;;;;;;;6253153;22;20027;-82
2022/07/02 01:06:26;;;;;;;4.88;3.10;;;;;;;;;;6283205;22;20047;-87
2022/07/02 01:11:38;;;;;;;6.45;3.15;;;;;;;;;;6281538;22;20463;-86
2022/07/02 01:14:04;;;;;;;6.57;3.45;;;;;;;;;;6253719;22;20020;-86
2022/07/02 01:16:30;;;;;;;5.60;3.22;;;;;;;;;;6281195;22;20020;-83
2022/07/02 01:18:56;;;;;;;4.32;3.47;;;;;;;;;;6206958;22;20015;-82
2022/07/02 01:21:22;;;;;;;6.65;3.70;;;;;;;;;;6203115;22;20106;-83
2022/07/02 01:23:49;;;;;;;4.78;3.10;;;;;;;;;;6282727;22;20015;-87
2022/07/02 01:26:15;;;;;;;5.22;3.15;;;;;;;;;;6281560;22;20530;-86
2022/07/02 01:28:41;;;;;;;7.32;3.53;;;;;;;;;;6281414;22;20023;-81
2022/07/02 01:31:07;;;;;;;8.82;3.08;;;;;;;;;;6252234;22;20012;-85
2022/07/02 01:33:33;;;;;;;7.40;2.85;;;;;;;;;;6226737;22;20599;-84
2022/07/02 01:35:59;;;;;;;5.32;2.95;;;;;;;;;;6279512;22;20015;-83
2022/07/02 01:38:26;;;;;;;10.20;3.53;;;;;;;;;;6278235;22;20043;-84
2022/07/02 01:41:38;;;;;;;5.45;3.10;;;;;;;;;;6279483;22;20020;-86
2022/07/02 01:43:43;;;;;;;5.00;3.42;;;;;;;;;;6281296;22;20023;-85
2022/07/02 01:46:09;;;;;;;7.93;3.05;;;;;;;;;;6255988;22;20024;-84
2022/07/02 01:48:35;;;;;;;8.95;3.67;;;;;;;;;;6278509;22;20067;-85
2022/07/02 01:51:20;;;;;;;7.82;3.95;;;;;;;;;;6281731;22;20019;-84
2022/07/02 01:53:46;;;;;;;6.03;3.25;;;;;;;;;;6281367;22;20039;-85
2022/07/02 01:56:12;;;;;;;8.85;3.78;;;;;;;;;;6254903;22;20019;-84
2022/07/02 01:58:39;;;;;;;6.68;3.58;;;;;;;;;;6281012;22;20019;-83
2022/07/02 02:01:14;;;;;;;13.05;3.85;;;;;;;;;;6281995;22;20020;-86
2022/07/02 02:03:40;;;;;;;6.07;3.67;;;;;;;;;;6281949;22;20023;-84
2022/07/02 02:06:06;;;;;;;10.80;3.60;;;;;;;;;;6280812;22;20016;-83
2022/07/02 02:08:32;;;;;;;8.38;3.53;;;;;;;;;;6230143;22;20064;-83
2022/07/02 02:10:58;;;;;;;6.20;3.45;;;;;;;;;;6282073;22;20019;-81
2022/07/02 02:13:24;;;;;;;5.15;3.65;;;;;;;;;;6285959;22;20015;-83
2022/07/02 02:15:59;;;;;;;5.53;3.67;;;;;;;;;;6281610;22;20034;-85
2022/07/02 02:18:29;;;;;;;5.25;3.50;;;;;;;;;;6284930;22;20028;-87
2022/07/02 02:20:55;;;;;;;9.73;3.72;;;;;;;;;;6283623;22;20020;-85
2022/07/02 02:23:21;;;;;;;12.32;4.13;;;;;;;;;;6284322;22;20019;-82
2022/07/02 02:25:48;;;;;;;6.20;3.42;;;;;;;;;;6282865;22;20033;-84
2022/07/02 02:28:14;;;;;;;8.00;3.90;;;;;;;;;;6284531;22;20019;-86
2022/07/02 02:30:40;;;;;;;10.70;3.60;;;;;;;;;;6257257;22;20046;-85
2022/07/02 02:33:06;;;;;;;6.80;3.58;;;;;;;;;;6282968;22;20347;-86
2022/07/02 02:35:32;;;;;;;6.78;3.70;;;;;;;;;;6283183;22;20023;-84
2022/07/02 02:37:59;;;;;;;7.13;3.80;;;;;;;;;;6203875;22;20049;-87
2022/07/02 02:40:25;;;;;;;7.95;4.55;;;;;;;;;;6283834;22;20016;-85
2022/07/02 02:42:51;;;;;;;9.52;3.75;;;;;;;;;;6281429;22;20020;-85
2022/07/02 02:45:17;;;;;;;6.13;3.70;;;;;;;;;;6282653;22;20019;-83
2022/07/02 02:47:46;;;;;;;6.85;3.22;;;;;;;;;;6229665;22;20023;-85
2022/07/02 02:50:12;;;;;;;13.52;3.75;;;;;;;;;;6282733;22;20020;-84
2022/07/02 02:52:38;;;;;;;7.15;3.90;;;;;;;;;;6281940;22;20024;-84
2022/07/02 02:55:04;;;;;;;7.90;3.75;;;;;;;;;;6282199;22;20099;-86
2022/07/02 02:57:30;;;;;;;13.95;4.50;;;;;;;;;;6283316;22;20023;-87
2022/07/02 02:59:56;;;;;;;8.45;4.07;;;;;;;;;;6283340;22;20020;-87
2022/07/02 03:02:22;;;;;;;10.82;3.65;;;;;;;;;;6254777;22;20028;-86
2022/07/02 03:04:49;;;;;;;10.90;3.75;;;;;;;;;;6252959;23;20085;-84
2022/07/02 03:07:15;;;;;;;8.95;4.38;;;;;;;;;;6252906;23;20016;-85
2022/07/02 03:09:41;;;;;;;7.03;3.88;;;;;;;;;;6251339;23;20298;-86
2022/07/02 03:12:07;;;;;;;10.23;4.07;;;;;;;;;;6256216;22;20356;-86
2022/07/02 03:14:33;;;;;;;5.85;3.78;;;;;;;;;;6281227;22;20019;-84
2022/07/02 03:17:00;;;;;;;7.57;3.42;;;;;;;;;;6282063;22;20024;-84
2022/07/02 03:19:26;;;;;;;10.48;3.65;;;;;;;;;;6253558;22;20023;-83
2022/07/02 03:21:54;;;;;;;9.48;3.45;;;;;;;;;;6282306;22;20026;-84
2022/07/02 03:24:20;;;;;;;9.95;3.80;;;;;;;;;;6281634;22;20019;-83
2022/07/02 03:26:46;;;;;;;8.77;4.28;;;;;;;;;;6254197;22;20024;-83
2022/07/02 03:29:12;;;;;;;8.90;3.45;;;;;;;;;;6282807;22;20019;-84
2022/07/02 03:31:38;;;;;;;8.55;3.70;;;;;;;;;;6281346;22;20019;-84
2022/07/02 03:34:04;;;;;;;10.15;3.50;;;;;;;;;;6254059;22;20098;-83
2022/07/02 03:36:31;;;;;;;8.05;3.25;;;;;;;;;;6227728;22;20507;-83
2022/07/02 03:38:59;;;;;;;6.63;3.70;;;;;;;;;;6280592;22;20046;-85
2022/07/02 03:41:25;;;;;;;9.35;3.83;;;;;;;;;;6278952;22;20050;-83
2022/07/02 03:43:51;;;;;;;8.27;3.53;;;;;;;;;;6279296;22;20016;-82
2022/07/02 03:46:18;;;;;;;12.63;4.40;;;;;;;;;;6279521;22;20094;-87
2022/07/02 03:48:44;;;;;;;7.88;3.15;;;;;;;;;;6278857;22;20015;-81
2022/07/02 03:51:10;;;;;;;9.75;3.42;;;;;;;;;;6280567;22;20058;-82
2022/07/02 03:53:37;;;;;;;11.68;4.07;;;;;;;;;;6278724;22;20012;-84
2022/07/02 03:56:03;;;;;;;7.78;3.47;;;;;;;;;;6280577;22;20020;-83
2022/07/02 03:58:31;;;;;;;9.90;3.63;;;;;;;;;;6279644;22;20444;-83
2022/07/02 04:00:57;;;;;;;8.73;3.35;;;;;;;;;;6281161;22;20078;-80
2022/07/02 04:03:27;;;;;;;11.85;3.67;;;;;;;;;;6278132;22;20468;-85
2022/07/02 04:05:54;;;;;;;9.90;3.58;;;;;;;;;;6278032;22;20027;-84
2022/07/02 04:08:20;;;;;;;9.13;3.92;;;;;;;;;;6251924;22;21164;-83
2022/07/02 04:10:48;;;;;;;14.20;5.15;;;;;;;;;;6227334;22;20030;-83
2022/07/02 04:13:20;;;;;;;8.25;3.42;;;;;;;;;;6251285;22;20099;-83
2022/07/02 04:15:46;;;;;;;11.77;4.53;;;;;;;;;;6278568;22;20023;-81
2022/07/02 04:18:12;;;;;;;7.35;3.90;;;;;;;;;;6252640;22;20012;-83
2022/07/02 04:20:49;;;;;;;10.98;3.53;;;;;;;;;;6250639;22;20506;-82
2022/07/02 04:23:15;;;;;;;7.43;3.60;;;;;;;;;;6245114;22;20077;-83
2022/07/02 04:25:42;;;;;;;7.03;3.28;;;;;;;;;;6251980;22;20020;-81
2022/07/02 04:28:28;;;;;;;;;;;;;;;;;;;;;
2022/07/02 04:30:57;;;;;;;6.90;3.40;;;;;;;;;;6275531;22;20019;-81
2022/07/02 04:33:23;;;;;;;9.75;3.85;;;;;;;;;;6252977;22;20034;-81
2022/07/02 04:35:49;;;;;;;7.28;3.67;;;;;;;;;;6281940;22;20015;-85
2022/07/02 04:38:15;;;;;;;14.18;4.50;;;;;;;;;;6253568;22;20016;-83
2022/07/02 04:40:41;;;;;;;9.35;4.18;;;;;;;;;;6280315;22;20434;-82
2022/07/02 04:43:07;;;;;;;9.40;3.83;;;;;;;;;;6279261;22;20019;-82
2022/07/02 04:45:34;;;;;;;8.95;4.50;;;;;;;;;;6279481;22;20019;-82
2022/07/02 04:48:00;;;;;;;11.63;4.30;;;;;;;;;;6279568;22;20047;-81
2022/07/02 04:50:26;;;;;;;9.82;3.70;;;;;;;;;;6278973;22;20031;-83
2022/07/02 04:52:52;;;;;;;11.35;4.35;;;;;;;;;;6280120;22;20075;-83
2022/07/02 04:55:18;;;;;;;13.55;4.25;;;;;;;;;;6280561;22;20356;-83
2022/07/02 04:57:44;;;;;;;13.52;4.38;;;;;;;;;;6279942;22;20118;-81
2022/07/02 05:00:11;;;;;;;8.98;3.88;;;;;;;;;;6278251;22;20149;-87
2022/07/02 05:02:37;;;;;;;5.80;4.13;;;;;;;;;;6280960;22;20019;-82
2022/07/02 05:05:04;;;;;;;11.70;3.90;;;;;;;;;;6279384;22;20027;-84
2022/07/02 05:07:31;;;;;;;8.70;4.22;;;;;;;;;;6227105;22;20022;-82
2022/07/02 05:10:00;;;;;;;10.68;3.95;;;;;;;;;;6252777;22;20047;-81
2022/07/02 05:12:26;;;;;;;8.93;3.70;;;;;;;;;;6279445;22;20011;-80
2022/07/02 05:14:52;;;;;;;10.98;4.13;;;;;;;;;;6225671;22;20573;-84
2022/07/02 05:17:18;;;;;;;6.03;3.97;;;;;;;;;;6279006;22;20030;-84
2022/07/02 05:19:44;;;;;;;9.10;4.55;;;;;;;;;;6280694;22;20504;-86
2022/07/02 05:22:11;;;;;;;10.38;4.07;;;;;;;;;;6279764;22;20150;-80
2022/07/02 05:24:37;;;;;;;6.15;3.97;;;;;;;;;;6251920;22;20020;-87
2022/07/02 05:27:03;;;;;;;9.15;4.70;;;;;;;;;;6279389;22;20034;-81
2022/07/02 05:29:29;;;;;;;8.95;4.93;;;;;;;;;;6279840;22;20020;-83
2022/07/02 05:31:55;;;;;;;8.15;4.95;;;;;;;;;;6252772;22;20494;-82
2022/07/02 05:34:22;;;;;;;12.40;5.72;;;;;;;;;;6253417;22;20027;-81
2022/07/02 05:36:48;;;;;;;9.07;5.60;;;;;;;;;;6278324;22;20019;-82
2022/07/02 05:39:14;;;;;;;11.15;6.22;;;;;;;;;;6279684;22;20050;-82
2022/07/02 05:41:42;;;;;;;9.15;6.30;;;;;;;;;;6252673;22;20020;-84
2022/07/02 05:44:08;;;;;;;6.68;6.00;;;;;;;;;;6280379;22;20550;-81
2022/07/02 05:46:34;;;;;;;10.38;6.20;;;;;;;;;;6280781;22;20019;-82
2022/07/02 05:49:00;;;;;;;14.02;6.82;;;;;;;;;;6280323;22;20043;-85
2022/07/02 05:51:26;;;;;;;9.23;6.95;;;;;;;;;;6280494;22;20558;-81
2022/07/02 05:53:53;;;;;;;9.88;7.20;;;;;;;;;;6279683;22;20020;-82
2022/07/02 05:56:21;;;;;;;8.48;6.28;;;;;;;;;;6252002;22;20083;-86
2022/07/02 05:58:48;;;;;;;12.05;6.97;;;;;;;;;;6226516;22;20099;-84
2022/07/02 06:01:20;;;;;;;11.02;6.80;;;;;;;;;;6278422;22;20015;-84
2022/07/02 06:03:54;;;;;;;11.00;7.30;;;;;;;;;;6252009;22;20039;-84
2022/07/02 06:09:24;;;;;;;8.45;6.68;;;;;;;;;;6256703;22;20274;-85
2022/07/02 06:11:50;;;;;;;15.48;6.75;;;;;;;;;;6252264;22;20051;-86
2022/07/02 06:14:16;;;;;;;12.40;6.40;;;;;;;;;;6226561;22;20019;-85
2022/07/02 06:17:15;;;;;;;9.75;6.53;;;;;;;;;;6230744;22;20020;-82
2022/07/02 06:19:51;;;;;;;8.07;6.25;;;;;;;;;;6251986;22;20051;-85
2022/07/02 06:22:17;;;;;;;15.88;6.70;;;;;;;;;;6228423;22;20019;-86
2022/07/02 06:24:45;;;;;;;8.95;6.35;;;;;;;;;;6228202;22;20020;-87
2022/07/02 06:27:11;;;;;;;14.93;6.30;;;;;;;;;;6281713;22;20015;-87
2022/07/02 06:29:40;;;;;;;8.85;5.72;;;;;;;;;;6251947;22;20030;-84
2022/07/02 06:32:06;;;;;;;13.20;6.20;;;;;;;;;;6280944;22;20034;-84
2022/07/02 06:34:32;;;;;;;9.68;5.53;;;;;;;;;;6280304;22;20034;-83
2022/07/02 06:37:04;;;;;;;11.88;5.30;;;;;;;;;;6255201;22;20106;-88
2022/07/02 06:39:40;;;;;;;10.63;5.00;;;;;;;;;;6282045;22;20016;-83
2022/07/02 06:42:19;;;;;;;7.93;4.82;;;;;;;;;;6283406;22;20024;-83
2022/07/02 06:44:46;;;;;;;8.40;4.20;;;;;;;;;;6281512;22;20038;-84
2022/07/02 06:47:13;;;;;;;12.38;4.40;;;;;;;;;;6281396;22;20016;-83
2022/07/02 06:49:45;;;;;;;9.27;4.40;;;;;;;;;;6254951;22;20345;-84
2022/07/02 06:52:18;;;;;;;10.02;4.93;;;;;;;;;;6252798;22;20055;-80
2022/07/02 06:54:44;;;;;;;6.75;4.30;;;;;;;;;;6254626;22;20489;-84
2022/07/02 06:57:11;;;;;;;8.98;4.18;;;;;;;;;;6228091;22;20020;-82
2022/07/02 06:59:37;;;;;;;5.57;4.30;;;;;;;;;;6254943;22;20038;-85
2022/07/02 07:02:03;;;;;;;8.25;3.97;;;;;;;;;;6283362;22;20031;-84
2022/07/02 07:04:29;;;;;;;6.43;3.80;;;;;;;;;;6251890;22;20424;-81
2022/07/02 07:06:56;;;;;;;7.35;4.18;;;;;;;;;;6277938;22;20019;-82
2022/07/02 07:09:28;;;;;;;6.47;3.67;;;;;;;;;;6253448;22;20623;-82
2022/07/02 07:12:07;;;;;;;7.13;3.75;;;;;;;;;;6225500;22;20097;-81
2022/07/02 07:14:36;;;;;;;7.22;3.63;;;;;;;;;;6280193;22;20048;-83
2022/07/02 07:17:04;;;;;;;9.20;3.58;;;;;;;;;;6251360;22;20020;-81
2022/07/02 07:19:38;;;;;;;11.52;4.10;;;;;;;;;;6278976;22;20016;-82
2022/07/02 07:22:04;;;;;;;6.72;3.60;;;;;;;;;;6278977;22;20019;-81
2022/07/02 07:24:31;;;;;;;6.10;3.40;;;;;;;;;;6251902;22;20015;-82
2022/07/02 07:27:00;;;;;;;9.00;4.32;;;;;;;;;;6281554;22;20024;-83
2022/07/02 07:29:26;;;;;;;6.15;3.10;;;;;;;;;;6280359;22;20019;-83
2022/07/02 07:32:01;;;;;;;6.47;2.90;;;;;;;;;;6280167;22;20038;-87
2022/07/02 07:34:28;;;;;;;5.82;3.03;;;;;;;;;;6279751;22;20475;-82
2022/07/02 07:36:58;;;;;;;5.35;2.60;;;;;;;;;;6277436;22;20027;-82
2022/07/02 07:39:25;;;;;;;7.47;2.35;;;;;;;;;;6276854;22;20020;-82
2022/07/02 07:42:06;;;;;;;7.47;2.30;;;;;;;;;;6277152;22;20020;-82
2022/07/02 07:50:49;;;;;;;4.97;1.52;;;;;;;;;;6278988;22;20038;-82
2022/07/02 07:53:15;;;;;;;2.90;1.73;;;;;;;;;;6251931;22;20070;-81
2022/07/02 07:55:45;;;;;;;5.05;1.90;;;;;;;;;;6281013;22;20034;-85
2022/07/02 07:58:49;;;;;;;3.38;1.58;;;;;;;;;;6279565;22;20049;-87
2022/07/02 08:01:45;;;;;;;3.75;1.80;;;;;;;;;;6226714;22;20047;-82
2022/07/02 08:07:09;;;;;;;5.30;1.98;;;;;;;;;;6279630;22;20024;-88
2022/07/02 08:09:36;;;;;;;5.63;1.63;;;;;;;;;;6280393;22;20030;-84
2022/07/02 08:12:02;;;;;;;3.38;1.63;;;;;;;;;;6281331;22;20441;-82
2022/07/02 08:14:34;;;;;;;5.00;1.30;;;;;;;;;;6228671;22;20015;-84
2022/07/02 08:17:00;;;;;;;7.50;1.50;;;;;;;;;;6300500;22;20076;-84
2022/07/02 08:19:38;;;;;;;2.10;1.52;;;;;;;;;;6284776;22;20460;-84
2022/07/02 08:25:25;;;;;;;1.50;0.90;;;;;;;;;;6186718;23;20024;-84
2022/07/02 08:27:51;;;;;;;3.42;1.00;;;;;;;;;;6187442;23;20020;-85
2022/07/02 08:30:17;;;;;;;2.13;0.90;;;;;;;;;;6186490;23;20280;-86
2022/07/02 08:32:43;;;;;;;3.42;1.35;;;;;;;;;;6197613;22;20015;-82
2022/07/02 08:35:10;;;;;;;5.15;1.55;;;;;;;;;;6310772;22;20028;-81
2022/07/02 08:37:37;;;;;;;4.55;1.92;;;;;;;;;;6286148;22;20028;-82
2022/07/02 08:40:04;;;;;;;1.80;0.95;;;;;;;;;;6311639;22;20101;-82
2022/07/02 08:42:40;;;;;;;3.53;1.40;;;;;;;;;;6314491;22;20538;-82
2022/07/02 08:45:08;;;;;;;4.78;1.20;;;;;;;;;;6312479;22;20399;-82
2022/07/02 08:47:55;;;;;;;4.75;1.10;;;;;;;;;;6311396;22;20015;-81
2022/07/02 08:54:11;;;;;;;3.28;1.45;;;;;;;;;;6221446;23;20091;-85
2022/07/02 08:56:38;;;;;;;4.70;1.77;;;;;;;;;;6221019;23;20353;-84
2022/07/02 09:02:30;;;;;;;2.95;1.63;;;;;;;;;;6177122;22;20032;-87
2022/07/02 09:36:54;;;;;;;2.10;0.68;;;;;;;;;;6225659;23;20023;-84
2022/07/02 09:39:45;;;;;;;11.55;1.60;;;;;;;;;;6196678;23;20020;-82
2022/07/02 09:42:26;;;;;;;2.92;0.63;;;;;;;;;;6221045;23;20028;-82
2022/07/02 09:55:17;;;;;;;1.65;0.68;;;;;;;;;;6274802;22;20042;-85
2022/07/02 10:01:03;;;;;;;0.73;0.40;;;;;;;;;;6313210;22;20030;-82
2022/07/02 10:03:30;;;;;;;1.17;0.55;;;;;;;;;;6313941;22;20016;-82
2022/07/02 10:05:56;;;;;;;3.53;0.50;;;;;;;;;;6259708;22;20015;-83
2022/07/02 10:08:22;;;;;;;1.60;0.60;;;;;;;;;;6259713;22;20019;-82
2022/07/02 10:10:49;;;;;;;2.17;0.68;;;;;;;;;;6261273;22;20015;-82
2022/07/02 10:13:16;;;;;;;3.00;0.80;;;;;;;;;;6261419;22;20025;-80
2022/07/02 10:15:48;;;;;;;3.08;0.85;;;;;;;;;;6287972;22;20023;-81
2022/07/02 10:18:14;;;;;;;0.60;0.40;;;;;;;;;;6261569;22;20020;-82
2022/07/02 10:20:41;;;;;;;2.13;0.60;;;;;;;;;;6315617;22;20011;-81
2022/07/02 10:23:07;;;;;;;1.77;0.80;;;;;;;;;;6315871;22;20094;-84
2022/07/02 10:25:34;;;;;;;2.63;0.75;;;;;;;;;;6262803;22;20058;-82
2022/07/02 10:28:00;;;;;;;2.50;0.65;;;;;;;;;;6315820;22;20019;-82
2022/07/02 10:30:33;;;;;;;4.22;0.60;;;;;;;;;;6315762;22;20026;-84
2022/07/02 10:33:17;;;;;;;4.50;0.80;;;;;;;;;;6285952;22;20035;-86
2022/07/02 10:35:45;;;;;;;1.60;0.50;;;;;;;;;;6284568;22;20019;-81
2022/07/02 10:38:13;;;;;;;2.30;0.60;;;;;;;;;;6258797;22;20073;-84
2022/07/02 10:40:46;;;;;;;7.38;0.80;;;;;;;;;;6283544;22;20069;-82
2022/07/02 10:43:12;;;;;;;;;;;;;;;;;;6258670;22;20020;-85
2022/07/02 10:45:39;;;;;;;1.17;0.60;;;;;;;;;;6230938;22;19939;-84
2022/07/02 10:48:09;;;;;;;2.35;0.40;;;;;;;;;;6259070;22;20103;-84
2022/07/02 10:58:12;;;;;;;1.13;0.70;;;;;;;;;;6250673;22;20100;-84
2022/07/02 11:00:52;;;;;;;1.15;0.50;;;;;;;;;;6283807;22;20344;-87
2022/07/02 11:15:50;;;;;;;2.05;0.75;;;;;;;;;;6286118;22;20019;-83
2022/07/02 11:24:55;;;;;;;1.30;0.60;;;;;;;;;;6288480;22;20007;-85
2022/07/02 11:27:24;;;;;;;0.43;0.35;;;;;;;;;;6293438;22;20024;-84
2022/07/02 11:29:54;;;;;;;0.85;0.50;;;;;;;;;;6243914;22;20012;-85
2022/07/02 11:32:48;;;;;;;2.83;0.70;;;;;;;;;;6266343;22;20020;-85
2022/07/02 11:35:46;;;;;;;1.05;0.60;;;;;;;;;;6293356;22;20042;-87
2022/07/02 11:38:24;;;;;;;2.47;0.70;;;;;;;;;;6287535;22;20016;-86
2022/07/02 11:41:13;;;;;;;2.67;0.68;;;;;;;;;;6237267;22;20020;-84
2022/07/02 11:43:38;;;;;;;1.45;0.40;;;;;;;;;;6259595;22;20050;-84
2022/07/02 11:49:36;;;;;;;0.93;0.60;;;;;;;;;;6287106;22;20030;-89
2022/07/02 11:52:05;;;;;;;0.63;0.52;;;;;;;;;;6286421;22;20106;-83
2022/07/02 11:54:31;;;;;;;1.35;0.70;;;;;;;;;;6284601;22;20125;-85
2022/07/02 11:56:57;;;;;;;1.58;0.90;;;;;;;;;;6233196;22;20019;-85
2022/07/02 11:59:39;;;;;;;0.52;0.50;;;;;;;;;;6281909;22;20046;-85
2022/07/02 12:02:08;;;;;;;1.60;0.52;;;;;;;;;;6259298;22;20078;-84
2022/07/02 12:11:22;;;;;;;5.00;1.15;;;;;;;;;;6257560;22;20028;-87
2022/07/02 12:13:49;;;;;;;2.53;1.05;;;;;;;;;;6257329;22;20024;-88
2022/07/02 12:16:18;;;;;;;1.98;0.65;;;;;;;;;;6256763;22;20019;-89
2022/07/02 12:22:36;;;;;;;;;;;;;;;;;;;;;
2022/07/02 12:25:21;;;;;;;2.05;0.52;;;;;;;;;;6275371;22;20021;-85
2022/07/02 12:27:54;;;;;;;1.95;0.70;;;;;;;;;;6257682;22;20114;-88
2022/07/02 12:30:20;;;;;;;1.90;0.70;;;;;;;;;;6257264;22;20026;-83
2022/07/02 12:32:52;;;;;;;2.05;0.50;;;;;;;;;;6285910;22;20077;-85
2022/07/02 12:35:18;;;;;;;0.98;0.50;;;;;;;;;;6284204;22;20058;-85
2022/07/02 12:38:02;;;;;;;2.88;0.68;;;;;;;;;;6233196;22;20022;-88
2022/07/02 12:40:28;;;;;;;5.13;0.80;;;;;;;;;;6256529;22;20047;-83
2022/07/02 12:43:05;;;;;;;1.63;0.82;;;;;;;;;;6208493;22;20129;-81
2022/07/02 12:45:35;;;;;;;3.05;0.70;;;;;;;;;;6256781;22;20461;-86
2022/07/02 12:48:06;;;;;;;4.72;0.98;;;;;;;;;;6284668;22;20054;-84
2022/07/02 12:50:58;;;;;;;4.40;0.75;;;;;;;;;;6282609;22;20027;-86
2022/07/02 12:53:26;;;;;;;2.28;0.80;;;;;;;;;;6285214;22;20254;-82
2022/07/02 12:55:58;;;;;;;2.40;0.65;;;;;;;;;;6231554;22;20023;-83
2022/07/02 12:58:24;;;;;;;1.85;0.70;;;;;;;;;;6257703;22;20020;-85
2022/07/02 13:01:09;;;;;;;2.80;0.88;;;;;;;;;;6256341;22;20027;-83
2022/07/02 13:03:38;;;;;;;2.33;0.95;;;;;;;;;;6256459;22;20031;-84
2022/07/02 13:06:05;;;;;;;6.90;0.82;;;;;;;;;;6257446;22;20034;-87
2022/07/02 13:08:31;;;;;;;2.45;0.77;;;;;;;;;;6251893;22;20015;-85
2022/07/02 13:10:57;;;;;;;2.22;0.70;;;;;;;;;;6254394;22;20040;-84
2022/07/02 13:13:35;;;;;;;4.05;0.90;;;;;;;;;;6278361;22;20020;-88
2022/07/02 13:16:01;;;;;;;1.67;0.50;;;;;;;;;;6282653;22;20016;-82
2022/07/02 13:18:47;;;;;;;3.33;0.82;;;;;;;;;;6281393;22;20079;-82
2022/07/02 13:21:13;;;;;;;3.22;1.30;;;;;;;;;;6282371;22;20038;-81
2022/07/02 13:23:39;;;;;;;3.63;1.52;;;;;;;;;;6281665;22;20024;-83
2022/07/02 13:26:27;;;;;;;5.82;1.60;;;;;;;;;;6282338;22;20019;-86
2022/07/02 13:28:53;;;;;;;4.80;0.82;;;;;;;;;;6256065;22;20019;-84
2022/07/02 13:41:18;;;;;;;;;;;;;;;;;;;;;
2022/07/02 14:14:23;;;;;;;2.20;0.63;;;;;;;;;;6158093;23;20092;-83
2022/07/02 14:16:50;;;;;;;1.77;0.73;;;;;;;;;;6228029;22;20176;-85
2022/07/02 14:19:16;;;;;;;2.78;0.60;;;;;;;;;;6260957;22;20344;-84
2022/07/02 14:21:51;;;;;;;2.05;0.60;;;;;;;;;;6285154;22;20019;-83
2022/07/02 14:24:25;;;;;;;1.80;0.80;;;;;;;;;;6283378;22;20019;-84
2022/07/02 14:56:21;;;;;;;1.83;0.60;;;;;;;;;;6315137;22;20336;-87
2022/07/02 15:06:36;;;;;;;2.30;1.05;;;;;;;;;;6275144;22;20102;-83
2022/07/02 15:09:07;;;;;;;3.47;0.95;;;;;;;;;;6277506;22;20019;-88
2022/07/02 15:11:41;;;;;;;1.85;0.60;;;;;;;;;;6254621;22;20050;-88
2022/07/02 15:17:21;;;;;;;2.15;0.63;;;;;;;;;;6286768;22;20024;-87
2022/07/02 15:19:48;;;;;;;4.88;0.70;;;;;;;;;;6257522;22;20107;-87
2022/07/02 15:22:15;;;;;;;4.22;0.75;;;;;;;;;;6252303;22;20019;-84
2022/07/02 15:24:47;;;;;;;3.03;1.35;;;;;;;;;;6316450;22;20042;-88
2022/07/02 15:27:15;;;;;;;4.25;0.70;;;;;;;;;;6314190;22;20061;-85
2022/07/02 15:29:44;;;;;;;0.65;0.52;;;;;;;;;;6286822;22;20137;-85
2022/07/02 15:32:14;;;;;;;1.90;1.08;;;;;;;;;;6313216;22;20015;-88
2022/07/02 15:34:58;;;;;;;1.23;0.70;;;;;;;;;;6314657;22;20015;-82
2022/07/02 15:37:24;;;;;;;10.45;8.45;;;;;;;;;;6261310;22;20471;-87
2022/07/02 15:39:51;;;;;;;12.68;7.15;;;;;;;;;;6262594;22;20070;-87
2022/07/02 15:42:22;;;;;;;3.17;0.55;;;;;;;;;;6262223;22;20066;-88
2022/07/02 15:44:55;;;;;;;2.50;0.77;;;;;;;;;;6261590;22;20041;-86
2022/07/02 15:47:21;;;;;;;2.53;0.60;;;;;;;;;;6315703;22;20045;-86
2022/07/02 15:49:47;;;;;;;2.55;0.70;;;;;;;;;;6312588;22;20613;-84
2022/07/02 15:52:23;;;;;;;2.67;1.00;;;;;;;;;;6262688;22;20038;-86
2022/07/02 15:54:52;;;;;;;2.72;1.00;;;;;;;;;;6260303;22;20038;-85
2022/07/02 15:57:19;;;;;;;2.83;0.80;;;;;;;;;;6262144;22;20020;-87
2022/07/02 15:59:52;;;;;;;4.80;1.13;;;;;;;;;;6312560;22;20049;-85
2022/07/02 16:05:15;;;;;;;3.13;0.68;;;;;;;;;;6285117;22;20168;-86
2022/07/02 16:08:03;;;;;;;5.47;0.80;;;;;;;;;;6262582;22;20046;-87
2022/07/02 16:11:09;;;;;;;3.90;0.88;;;;;;;;;;6286619;22;20133;-86
2022/07/02 16:16:54;;;;;;;2.65;0.90;;;;;;;;;;6315884;22;20023;-87
2022/07/02 16:19:33;;;;;;;1.80;0.80;;;;;;;;;;6313252;22;20015;-87
2022/07/02 16:22:30;;;;;;;3.50;1.00;;;;;;;;;;6288620;22;20386;-86
2022/07/02 16:24:57;;;;;;;4.22;0.90;;;;;;;;;;6312529;22;20032;-86
2022/07/02 16:27:32;;;;;;;2.28;0.85;;;;;;;;;;6263207;22;20038;-86
2022/07/02 16:30:19;;;;;;;1.92;0.90;;;;;;;;;;6287298;22;20073;-85
2022/07/02 16:32:51;;;;;;;1.67;0.90;;;;;;;;;;6316238;22;20019;-86
2022/07/02 16:35:35;;;;;;;1.90;0.50;;;;;;;;;;6286089;22;20033;-86
2022/07/02 16:38:38;;;;;;;2.10;1.05;;;;;;;;;;6316611;22;20583;-87
2022/07/02 16:41:15;;;;;;;1.83;1.00;;;;;;;;;;6261038;22;20033;-88
2022/07/02 16:43:50;;;;;;;2.78;1.05;;;;;;;;;;6312670;22;20289;-84
2022/07/02 16:46:50;;;;;;;2.17;1.17;;;;;;;;;;6286793;22;20049;-84
2022/07/02 16:55:40;;;;;;;2.92;0.88;;;;;;;;;;6316041;22;20021;-85
2022/07/02 16:58:11;;;;;;;2.10;0.82;;;;;;;;;;6289792;22;20019;-84
2022/07/02 17:04:16;;;;;;;2.95;1.10;;;;;;;;;;6319370;22;20042;-88
2022/07/02 17:06:52;;;;;;;0.75;0.63;;;;;;;;;;6262596;22;20066;-87
2022/07/02 17:13:02;;;;;;;2.88;0.77;;;;;;;;;;6283095;22;20129;-86
2022/07/02 17:19:15;;;;;;;2.97;0.70;;;;;;;;;;6253690;22;20024;-88
2022/07/02 17:21:41;;;;;;;2.05;0.70;;;;;;;;;;6283643;22;20083;-86
2022/07/02 17:24:16;;;;;;;2.58;0.80;;;;;;;;;;6280601;22;20019;-86
2022/07/02 17:26:42;;;;;;;1.92;0.73;;;;;;;;;;6283745;22;20038;-87
2022/07/02 17:29:19;;;;;;;5.88;1.30;;;;;;;;;;6254671;22;20019;-88
2022/07/02 17:35:06;;;;;;;1.77;0.90;;;;;;;;;;6289328;22;20024;-89
2022/07/02 17:37:38;;;;;;;4.13;0.80;;;;;;;;;;6290539;22;20074;-86
2022/07/02 17:40:20;;;;;;;2.13;0.90;;;;;;;;;;6316926;22;20042;-88
2022/07/02 17:42:52;;;;;;;1.63;0.70;;;;;;;;;;6316925;22;20476;-88
2022/07/02 17:45:47;;;;;;;2.17;1.00;;;;;;;;;;6315944;22;20034;-83
2022/07/02 17:59:22;;;;;;;3.08;0.60;;;;;;;;;;6221362;23;20084;-87
2022/07/02 18:02:19;;;;;;;1.70;0.80;;;;;;;;;;6221022;23;20068;-88
2022/07/02 18:08:17;;;;;;;5.38;0.90;;;;;;;;;;6195654;23;20100;-87
2022/07/02 18:10:43;;;;;;;3.88;0.85;;;;;;;;;;6199238;23;20072;-87
2022/07/02 18:13:41;;;;;;;2.28;0.68;;;;;;;;;;6222745;23;20105;-84
2022/07/02 18:16:27;;;;;;;4.45;1.45;;;;;;;;;;6195208;23;20043;-85
2022/07/02 18:19:12;;;;;;;2.05;0.80;;;;;;;;;;6253510;22;20072;-87
2022/07/02 18:21:38;;;;;;;2.50;0.73;;;;;;;;;;6287572;22;20015;-83
2022/07/02 18:24:13;;;;;;;4.65;1.20;;;;;;;;;;6236719;22;20104;-83
2022/07/02 18:26:58;;;;;;;6.10;1.02;;;;;;;;;;6265148;22;20015;-83
2022/07/02 18:29:27;;;;;;;6.75;0.90;;;;;;;;;;6314504;22;20387;-85
2022/07/02 18:32:03;;;;;;;5.25;1.10;;;;;;;;;;6307956;22;20297;-81
2022/07/02 19:08:27;;;;;;;3.22;0.80;;;;;;;;;;6135846;23;20025;-83
2022/07/02 19:11:00;;;;;;;1.58;0.80;;;;;;;;;;6158370;22;20021;-84
2022/07/02 19:13:45;;;;;;;;;;;;;;;;;;6256077;22;20020;-83
2022/07/02 19:16:11;;;;;;;3.05;1.00;;;;;;;;;;6253580;22;19969;-85
2022/07/02 19:18:47;;;;;;;1.67;0.70;;;;;;;;;;6256403;22;20031;-83
2022/07/02 19:21:22;;;;;;;2.85;0.80;;;;;;;;;;6282110;22;20019;-84
2022/07/02 19:30:58;;;;;;;1.77;0.95;;;;;;;;;;6282045;22;20069;-85
2022/07/02 19:35:57;;;;;;;3.40;1.10;;;;;;;;;;6292677;22;20106;-85
2022/07/02 19:38:41;;;;;;;5.43;1.20;;;;;;;;;;6296325;22;20162;-86
2022/07/02 19:41:29;;;;;;;4.30;0.90;;;;;;;;;;6294816;22;20030;-85
2022/07/02 19:54:14;;;;;;;3.97;1.45;;;;;;;;;;6283454;22;20090;-86